createdAt,value
2023-03-03T00:00:58.120Z,0.66
2023-03-03T00:03:26.951Z,0.64
2023-03-03T00:05:54.132Z,0.62
2023-03-03T00:08:20.966Z,0.58
2023-03-03T00:10:47.629Z,0.57
2023-03-03T00:13:22.479Z,0.56
2023-03-03T00:15:49.699Z,0.54
2023-03-03T00:18:30.961Z,0.53
2023-03-03T00:21:01.067Z,0.52
2023-03-03T00:23:43.202Z,0.49
2023-03-03T00:26:21.840Z,0.51
2023-03-03T00:28:51.838Z,0.50
2023-03-03T00:31:37.333Z,0.52
2023-03-03T00:34:20.052Z,0.53
2023-03-03T00:36:54.909Z,0.53
2023-03-03T00:39:37.916Z,0.55
2023-03-03T00:42:33.620Z,0.58
2023-03-03T00:45:00.997Z,0.55
2023-03-03T00:47:31.774Z,0.54
2023-03-03T00:50:07.584Z,0.54
2023-03-03T00:52:37.279Z,0.52
2023-03-03T00:55:05.176Z,0.52
2023-03-03T00:57:31.697Z,0.49
2023-03-03T00:59:59.168Z,0.49
2023-03-03T01:02:26.598Z,0.50
2023-03-03T01:04:57.106Z,0.50
2023-03-03T01:07:24.034Z,0.52
2023-03-03T01:09:50.572Z,0.51
2023-03-03T01:12:17.221Z,0.49
2023-03-03T01:14:45.408Z,0.49
2023-03-03T01:17:12.618Z,0.48
2023-03-03T01:19:39.419Z,0.49
2023-03-03T01:22:06.210Z,0.50
2023-03-03T01:24:33.425Z,0.50
2023-03-03T01:27:00.196Z,0.52
2023-03-03T01:29:26.761Z,0.51
2023-03-03T01:31:53.285Z,0.50
2023-03-03T01:34:19.786Z,0.50
2023-03-03T01:36:46.266Z,0.50
2023-03-03T01:39:12.759Z,0.53
2023-03-03T01:41:39.618Z,0.53
2023-03-03T01:44:07.380Z,0.52
2023-03-03T01:47:02.752Z,0.52
2023-03-03T01:49:35.303Z,0.54
2023-03-03T01:52:10.058Z,0.53
2023-03-03T01:54:41.919Z,0.51
2023-03-03T01:57:12.829Z,0.52
2023-03-03T01:59:44.980Z,0.51
2023-03-03T02:02:11.623Z,0.51
2023-03-03T02:04:38.306Z,0.50
2023-03-03T02:07:11.670Z,0.47
2023-03-03T02:09:47.067Z,0.45
2023-03-03T02:12:17.188Z,0.45
2023-03-03T02:14:44.896Z,0.44
2023-03-03T02:17:11.812Z,0.45
2023-03-03T02:19:58.675Z,0.45
2023-03-03T02:22:44.248Z,0.43
2023-03-03T02:25:17.939Z,0.43
2023-03-03T02:27:44.488Z,0.42
2023-03-03T02:30:17.074Z,0.40
2023-03-03T02:32:43.948Z,0.39
2023-03-03T02:35:28.253Z,0.39
2023-03-03T02:37:59.597Z,0.39
2023-03-03T02:40:31.366Z,0.40
2023-03-03T02:43:01.386Z,0.38
2023-03-03T02:45:28.057Z,0.39
2023-03-03T02:47:54.567Z,0.38
2023-03-03T02:50:21.094Z,0.38
2023-03-03T02:52:47.670Z,0.41
2023-03-03T02:55:17.420Z,0.41
2023-03-03T02:57:44.694Z,0.42
2023-03-03T03:00:11.605Z,0.43
2023-03-03T03:02:38.190Z,0.44
2023-03-03T03:05:05.851Z,0.45
2023-03-03T03:07:32.365Z,0.46
2023-03-03T03:09:58.864Z,0.45
2023-03-03T03:12:27.695Z,0.45
2023-03-03T03:14:56.571Z,0.46
2023-03-03T03:17:23.021Z,0.43
2023-03-03T03:19:51.508Z,0.44
2023-03-03T03:22:19.538Z,0.43
2023-03-03T03:24:46.190Z,0.44
2023-03-03T03:27:12.884Z,0.45
2023-03-03T03:29:39.417Z,0.46
2023-03-03T03:32:06.105Z,0.45
2023-03-03T03:34:32.686Z,0.43
2023-03-03T03:36:59.327Z,0.42
2023-03-03T03:39:27.695Z,0.42
2023-03-03T03:41:54.359Z,0.39
2023-03-03T03:44:23.872Z,0.38
2023-03-03T03:46:50.545Z,0.40
2023-03-03T03:49:18.397Z,0.41
2023-03-03T03:51:46.572Z,0.41
2023-03-03T03:54:16.524Z,0.42
2023-03-03T03:56:43.575Z,0.43
2023-03-03T03:59:10.522Z,0.41
2023-03-03T04:01:38.239Z,0.43
2023-03-03T04:04:05.277Z,0.40
2023-03-03T04:06:32.174Z,0.40
2023-03-03T04:08:58.964Z,0.42
2023-03-03T04:11:27.014Z,0.43
2023-03-03T04:13:53.546Z,0.40
2023-03-03T04:16:21.048Z,0.40
2023-03-03T04:18:47.653Z,0.42
2023-03-03T04:21:16.482Z,0.41
2023-03-03T04:23:44.694Z,0.41
2023-03-03T04:26:11.503Z,0.41
2023-03-03T04:28:38.865Z,0.39
2023-03-03T04:31:06.464Z,0.39
2023-03-03T04:33:33.398Z,0.37
2023-03-03T04:36:01.311Z,0.37
2023-03-03T04:38:27.900Z,0.38
2023-03-03T04:40:56.316Z,0.38
2023-03-03T04:43:25.647Z,0.40
2023-03-03T04:45:53.413Z,0.39
2023-03-03T04:48:21.187Z,0.42
2023-03-03T04:50:47.724Z,0.42
2023-03-03T04:53:14.353Z,0.44
2023-03-03T04:55:42.223Z,0.44
2023-03-03T04:58:10.314Z,0.45
2023-03-03T05:00:37.466Z,0.45
2023-03-03T05:03:04.273Z,0.46
2023-03-03T05:05:30.897Z,0.48
2023-03-03T05:07:57.384Z,0.47
2023-03-03T05:10:23.864Z,0.49
2023-03-03T05:12:50.297Z,0.49
2023-03-03T05:15:16.779Z,0.49
2023-03-03T05:17:43.352Z,0.51
2023-03-03T05:20:14.520Z,0.53
2023-03-03T05:22:41.382Z,0.54
2023-03-03T05:25:09.323Z,0.53
2023-03-03T05:27:35.840Z,0.53
2023-03-03T05:30:02.589Z,0.54
2023-03-03T05:32:29.070Z,0.55
2023-03-03T05:34:55.561Z,0.56
2023-03-03T05:37:24.280Z,0.60
2023-03-03T05:39:50.817Z,0.58
2023-03-03T05:42:17.217Z,0.60
2023-03-03T05:44:43.774Z,0.64
2023-03-03T05:47:10.637Z,0.64
2023-03-03T05:49:37.283Z,0.66
2023-03-03T05:52:04.030Z,0.69
2023-03-03T05:54:31.533Z,0.70
2023-03-03T05:56:58.117Z,0.72
2023-03-03T05:59:25.017Z,0.74
2023-03-03T06:01:51.564Z,0.76
2023-03-03T06:04:18.070Z,0.76
2023-03-03T06:06:44.612Z,0.79
2023-03-03T06:09:11.167Z,0.78
2023-03-03T06:11:37.726Z,0.79
2023-03-03T06:14:04.142Z,0.78
2023-03-03T06:16:30.784Z,0.80
2023-03-03T06:18:57.438Z,0.80
2023-03-03T06:21:24.128Z,0.82
2023-03-03T06:23:50.711Z,0.81
2023-03-03T06:26:17.367Z,0.83
2023-03-03T06:28:43.919Z,0.85
2023-03-03T06:31:10.422Z,0.84
2023-03-03T06:33:38.280Z,0.83
2023-03-03T06:36:05.914Z,0.85
2023-03-03T06:38:32.479Z,0.85
2023-03-03T06:41:02.156Z,0.86
2023-03-03T06:43:28.593Z,0.89
2023-03-03T06:45:55.048Z,0.90
2023-03-03T06:48:21.573Z,0.89
2023-03-03T06:50:48.120Z,0.90
2023-03-03T06:53:16.377Z,0.90
2023-03-03T06:55:44.906Z,0.93
2023-03-03T06:58:17.169Z,0.93
2023-03-03T07:00:46.215Z,0.95
2023-03-03T07:03:18.755Z,0.99
2023-03-03T07:05:45.542Z,1.00
2023-03-03T07:08:18.561Z,1.03
2023-03-03T07:10:47.072Z,1.04
2023-03-03T07:13:23.924Z,1.07
2023-03-03T07:15:55.775Z,1.11
2023-03-03T07:18:47.603Z,1.13
2023-03-03T07:21:26.574Z,1.17
2023-03-03T07:23:54.085Z,1.19
2023-03-03T07:26:25.223Z,1.22
2023-03-03T07:28:58.678Z,1.24
2023-03-03T07:31:43.074Z,1.28
2023-03-03T07:34:20.783Z,1.31
2023-03-03T07:36:48.721Z,1.35
2023-03-03T07:39:43.243Z,1.40
2023-03-03T07:42:27.730Z,1.41
2023-03-03T07:45:28.189Z,1.43
2023-03-03T07:48:03.507Z,1.45
2023-03-03T07:50:30.031Z,1.46
2023-03-03T07:53:00.053Z,1.49
2023-03-03T07:55:40.824Z,1.52
2023-03-03T07:58:15.579Z,1.57
2023-03-03T08:00:45.209Z,1.59
2023-03-03T08:03:19.275Z,1.60
2023-03-03T08:05:50.366Z,1.61
2023-03-03T08:08:37.061Z,1.69
2023-03-03T08:11:04.421Z,1.78
2023-03-03T08:13:42.952Z,1.81
2023-03-03T08:16:09.685Z,1.82
2023-03-03T08:18:40.024Z,1.81
2023-03-03T08:21:35.901Z,1.85
2023-03-03T08:24:02.523Z,1.87
2023-03-03T08:26:29.121Z,1.91
2023-03-03T08:28:55.817Z,1.94
2023-03-03T08:31:38.168Z,1.97
2023-03-03T08:34:06.629Z,2.01
2023-03-03T08:36:34.836Z,2.09
2023-03-03T08:39:01.874Z,2.16
2023-03-03T08:41:28.488Z,2.20
2023-03-03T08:43:55.001Z,2.24
2023-03-03T08:46:21.554Z,2.32
2023-03-03T08:48:48.168Z,2.38
2023-03-03T08:51:14.626Z,2.44
2023-03-03T08:53:41.882Z,2.53
2023-03-03T08:56:08.760Z,2.58
2023-03-03T08:58:36.483Z,2.65
2023-03-03T09:01:04.013Z,2.73
2023-03-03T09:03:30.756Z,2.87
2023-03-03T09:05:57.372Z,2.97
2023-03-03T09:08:23.879Z,3.01
2023-03-03T09:10:50.652Z,3.07
2023-03-03T09:13:19.462Z,3.14
2023-03-03T09:15:50.389Z,3.19
2023-03-03T09:18:32.206Z,3.29
2023-03-03T09:20:59.860Z,3.33
2023-03-03T09:23:42.088Z,3.40
2023-03-03T09:26:11.522Z,3.43
2023-03-03T09:28:37.973Z,3.50
2023-03-03T09:31:17.239Z,3.57
2023-03-03T09:33:49.739Z,3.60
2023-03-03T09:36:24.795Z,3.62
2023-03-03T09:38:52.076Z,3.67
2023-03-03T09:41:40.200Z,3.76
2023-03-03T09:44:13.967Z,3.84
2023-03-03T09:46:51.783Z,3.84
2023-03-03T09:49:18.174Z,3.89
2023-03-03T09:51:47.682Z,3.95
2023-03-03T09:54:20.731Z,4.02
2023-03-03T09:56:54.680Z,4.07
2023-03-03T09:59:59.342Z,4.18
2023-03-03T10:02:50.596Z,4.29
2023-03-03T10:05:27.600Z,4.38
2023-03-03T10:08:16.749Z,4.46
2023-03-03T10:11:29.240Z,4.62
2023-03-03T10:14:10.606Z,4.77
2023-03-03T10:17:01.416Z,4.95
2023-03-03T10:19:38.011Z,4.91
2023-03-03T10:22:20.293Z,4.72
2023-03-03T10:25:04.758Z,4.81
2023-03-03T10:27:47.784Z,5.07
2023-03-03T10:30:36.997Z,5.31
2023-03-03T10:33:15.764Z,5.28
2023-03-03T10:36:06.284Z,5.33
2023-03-03T10:39:03.970Z,5.54
2023-03-03T10:41:42.629Z,5.58
2023-03-03T10:44:25.597Z,5.69
2023-03-03T10:47:05.970Z,5.85
2023-03-03T10:49:54.262Z,5.98
2023-03-03T10:52:39.361Z,6.15
2023-03-03T10:55:21.320Z,6.24
2023-03-03T10:58:17.317Z,6.35
2023-03-03T11:01:09.912Z,6.55
2023-03-03T11:03:41.751Z,6.55
2023-03-03T11:06:14.209Z,6.55
2023-03-03T11:08:47.580Z,6.60
2023-03-03T11:11:19.678Z,6.61
2023-03-03T11:13:56.629Z,6.45
2023-03-03T11:16:29.228Z,6.34
2023-03-03T11:19:26.770Z,6.43
2023-03-03T11:21:59.720Z,6.30
2023-03-03T11:24:34.396Z,6.22
2023-03-03T11:27:06.874Z,6.09
2023-03-03T11:29:42.514Z,6.04
2023-03-03T11:32:18.074Z,6.20
2023-03-03T11:34:58.993Z,6.36
2023-03-03T11:37:38.091Z,6.53
2023-03-03T11:40:36.152Z,6.75
2023-03-03T11:43:36.768Z,6.98
2023-03-03T11:46:13.165Z,7.07
2023-03-03T11:48:58.021Z,6.96
2023-03-03T11:51:40.514Z,6.82
2023-03-03T11:54:23.896Z,6.89
2023-03-03T11:56:54.208Z,6.96
2023-03-03T11:59:42.193Z,7.13
2023-03-03T12:02:24.851Z,7.25
2023-03-03T12:05:08.790Z,7.46
2023-03-03T12:07:48.328Z,7.45
2023-03-03T12:10:24.035Z,7.48
2023-03-03T12:13:05.456Z,7.32
2023-03-03T12:15:41.028Z,7.30
2023-03-03T12:18:10.280Z,7.40
2023-03-03T12:21:07.518Z,7.48
2023-03-03T12:23:58.201Z,7.46
2023-03-03T12:26:33.634Z,7.68
2023-03-03T12:29:33.196Z,7.65
2023-03-03T12:32:21.305Z,7.47
2023-03-03T12:35:26.419Z,7.30
2023-03-03T12:38:30.790Z,7.31
2023-03-03T12:41:10.628Z,7.49
2023-03-03T12:44:05.484Z,7.59
2023-03-03T12:47:03.121Z,7.49
2023-03-03T12:49:48.083Z,7.44
2023-03-03T12:52:44.773Z,7.57
2023-03-03T12:55:27.778Z,7.81
2023-03-03T12:58:14.717Z,8.11
2023-03-03T13:00:55.416Z,8.18
2023-03-03T13:03:55.378Z,8.03
2023-03-03T13:06:22.729Z,7.90
2023-03-03T13:09:08.469Z,7.87
2023-03-03T13:12:00.344Z,7.89
2023-03-03T13:14:39.030Z,7.78
2023-03-03T13:17:19.601Z,7.69
2023-03-03T13:20:00.309Z,7.62
2023-03-03T13:22:50.578Z,7.62
2023-03-03T13:25:31.701Z,7.64
2023-03-03T13:28:05.401Z,7.68
2023-03-03T13:30:35.680Z,7.70
2023-03-03T13:33:14.700Z,7.77
2023-03-03T13:36:05.118Z,7.80
2023-03-03T13:38:39.715Z,7.81
2023-03-03T13:41:34.806Z,7.76
2023-03-03T13:44:15.251Z,7.75
2023-03-03T13:46:59.986Z,7.69
2023-03-03T13:49:32.274Z,7.69
2023-03-03T13:52:06.286Z,7.68
2023-03-03T13:55:03.664Z,7.65
2023-03-03T13:57:59.027Z,7.54
2023-03-03T14:00:31.805Z,7.56
2023-03-03T14:03:40.905Z,7.56
2023-03-03T14:06:23.127Z,7.50
2023-03-03T14:08:49.601Z,7.47
2023-03-03T14:11:25.293Z,7.36
2023-03-03T14:14:10.470Z,7.35
2023-03-03T14:16:57.972Z,7.36
2023-03-03T14:19:33.520Z,7.32
2023-03-03T14:22:32.791Z,7.30
2023-03-03T14:25:11.033Z,7.36
2023-03-03T14:27:46.419Z,7.48
2023-03-03T14:30:22.001Z,7.49
2023-03-03T14:33:07.400Z,7.43
2023-03-03T14:35:41.118Z,7.42
2023-03-03T14:38:21.856Z,7.32
2023-03-03T14:40:49.706Z,7.28
2023-03-03T14:43:26.368Z,7.30
2023-03-03T14:45:54.363Z,7.31
2023-03-03T14:48:22.591Z,7.32
2023-03-03T14:50:51.476Z,7.39
2023-03-03T14:53:17.844Z,7.44
2023-03-03T14:55:52.378Z,7.41
2023-03-03T14:58:30.058Z,7.33
2023-03-03T15:01:33.870Z,7.28
2023-03-03T15:04:14.354Z,7.32
2023-03-03T15:06:44.778Z,7.28
2023-03-03T15:09:43.189Z,7.28
2023-03-03T15:12:23.363Z,7.22
2023-03-03T15:14:52.506Z,7.21
2023-03-03T15:18:01.443Z,7.21
2023-03-03T15:20:48.920Z,7.19
2023-03-03T15:24:03.243Z,7.14
2023-03-03T15:26:51.381Z,7.11
2023-03-03T15:29:30.622Z,7.09
2023-03-03T15:32:19.174Z,7.05
2023-03-03T15:35:04.738Z,7.03
2023-03-03T15:37:58.221Z,7.06
2023-03-03T15:40:39.506Z,7.04
2023-03-03T15:43:20.159Z,7.00
2023-03-03T15:46:04.286Z,6.94
2023-03-03T15:48:52.221Z,6.85
2023-03-03T15:51:36.012Z,6.76
2023-03-03T15:54:24.487Z,6.75
2023-03-03T15:56:58.366Z,6.73
2023-03-03T15:59:42.278Z,6.67
2023-03-03T16:02:37.196Z,6.67
2023-03-03T16:05:39.521Z,6.59
2023-03-03T16:08:14.742Z,6.54
2023-03-03T16:11:09.465Z,6.51
2023-03-03T16:14:26.546Z,6.50
2023-03-03T16:17:39.418Z,6.49
2023-03-03T16:20:36.060Z,6.46
2023-03-03T16:23:27.075Z,6.42
2023-03-03T16:26:08.338Z,6.38
2023-03-03T16:28:43.894Z,6.35
2023-03-03T16:31:12.915Z,6.34
2023-03-03T16:33:48.592Z,6.34
2023-03-03T16:36:17.757Z,6.34
2023-03-03T16:39:02.817Z,6.33
2023-03-03T16:41:47.070Z,6.32
2023-03-03T16:44:22.469Z,6.29
2023-03-03T16:46:50.432Z,6.29
2023-03-03T16:49:37.319Z,6.27
2023-03-03T16:52:16.982Z,6.24
2023-03-03T16:55:19.946Z,6.23
2023-03-03T16:57:47.114Z,6.21
2023-03-03T17:00:27.303Z,6.19
2023-03-03T17:02:58.791Z,6.13
2023-03-03T17:05:36.929Z,6.10
2023-03-03T17:08:22.062Z,6.09
2023-03-03T17:10:58.062Z,6.09
2023-03-03T17:13:32.416Z,6.08
2023-03-03T17:16:14.293Z,6.07
2023-03-03T17:18:59.352Z,6.07
2023-03-03T17:21:43.740Z,6.02
2023-03-03T17:24:28.465Z,5.98
2023-03-03T17:27:22.797Z,5.96
2023-03-03T17:30:00.022Z,5.96
2023-03-03T17:32:58.361Z,5.95
2023-03-03T17:35:49.860Z,5.92
2023-03-03T17:38:16.264Z,5.89
2023-03-03T17:40:55.357Z,5.90
2023-03-03T17:43:29.364Z,5.89
2023-03-03T17:46:01.384Z,5.88
2023-03-03T17:48:44.053Z,5.85
2023-03-03T17:51:16.289Z,5.85
2023-03-03T17:54:23.048Z,5.87
2023-03-03T17:57:14.418Z,5.84
2023-03-03T18:00:06.686Z,5.80
2023-03-03T18:02:42.377Z,5.76
2023-03-03T18:05:35.919Z,5.74
2023-03-03T18:08:14.163Z,5.73
2023-03-03T18:11:15.843Z,5.72
2023-03-03T18:13:55.846Z,5.67
2023-03-03T18:16:51.590Z,5.66
2023-03-03T18:19:29.532Z,5.66
2023-03-03T18:22:22.286Z,5.65
2023-03-03T18:24:51.671Z,5.63
2023-03-03T18:27:24.266Z,5.59
2023-03-03T18:30:20.165Z,5.58
2023-03-03T18:33:01.906Z,5.56
2023-03-03T18:35:39.343Z,5.54
2023-03-03T18:38:18.158Z,5.54
2023-03-03T18:41:00.791Z,5.53
2023-03-03T18:43:45.409Z,5.51
2023-03-03T18:46:22.545Z,5.50
2023-03-03T18:48:57.102Z,5.50
2023-03-03T18:51:38.865Z,5.50
2023-03-03T18:54:17.345Z,5.47
2023-03-03T18:57:04.941Z,5.46
2023-03-03T18:59:31.405Z,5.45
2023-03-03T19:02:21.576Z,5.45
2023-03-03T19:05:04.567Z,5.42
2023-03-03T19:07:40.311Z,5.38
2023-03-03T19:10:19.166Z,5.38
2023-03-03T19:12:56.795Z,5.37
2023-03-03T19:15:35.899Z,5.36
2023-03-03T19:18:18.820Z,5.35
2023-03-03T19:20:55.690Z,5.33
2023-03-03T19:23:47.598Z,5.32
2023-03-03T19:26:28.910Z,5.32
2023-03-03T19:29:04.599Z,5.32
2023-03-03T19:32:00.849Z,5.32
2023-03-03T19:34:46.045Z,5.31
2023-03-03T19:37:40.957Z,5.31
2023-03-03T19:40:25.110Z,5.29
2023-03-03T19:43:30.490Z,5.29
2023-03-03T19:46:22.860Z,5.29
2023-03-03T19:49:22.357Z,5.27
2023-03-03T19:52:05.855Z,5.27
2023-03-03T19:54:57.000Z,5.27
2023-03-03T19:57:47.533Z,5.27
2023-03-03T20:00:26.517Z,5.27
2023-03-03T20:03:29.982Z,5.26
2023-03-03T20:06:17.042Z,5.25
2023-03-03T20:08:51.966Z,5.25
2023-03-03T20:11:37.766Z,5.26
2023-03-03T20:14:15.868Z,5.24
2023-03-03T20:16:44.685Z,5.24
2023-03-03T20:19:34.532Z,5.25
2023-03-03T20:22:17.865Z,5.25
2023-03-03T20:24:56.701Z,5.24
2023-03-03T20:27:34.644Z,5.25
2023-03-03T20:30:26.201Z,5.25
2023-03-03T20:33:13.391Z,5.25
2023-03-03T20:35:56.210Z,5.24
2023-03-03T20:38:57.143Z,5.24
2023-03-03T20:41:39.314Z,5.24
2023-03-03T20:44:14.947Z,5.25
2023-03-03T20:46:48.440Z,5.26
2023-03-03T20:49:49.810Z,5.25
2023-03-03T20:52:43.352Z,5.25
2023-03-03T20:55:39.952Z,5.25
2023-03-03T20:58:30.384Z,5.24
2023-03-03T21:01:36.629Z,5.23
2023-03-03T21:04:20.025Z,5.22
2023-03-03T21:06:47.590Z,5.22
2023-03-03T21:09:28.112Z,5.22
2023-03-03T21:11:55.475Z,5.20
2023-03-03T21:14:22.087Z,5.20
2023-03-03T21:16:50.870Z,5.21
2023-03-03T21:19:29.605Z,5.21
2023-03-03T21:21:57.196Z,5.21
2023-03-03T21:24:43.658Z,5.21
2023-03-03T21:27:31.728Z,5.22
2023-03-03T21:30:15.334Z,5.21
2023-03-03T21:32:47.910Z,5.21
2023-03-03T21:35:21.675Z,5.20
2023-03-03T21:37:51.088Z,5.20
2023-03-03T21:40:27.639Z,5.19
2023-03-03T21:42:56.950Z,5.18
2023-03-03T21:45:24.161Z,5.18
2023-03-03T21:47:52.173Z,5.17
2023-03-03T21:50:22.515Z,5.16
2023-03-03T21:52:49.101Z,5.17
2023-03-03T21:55:15.889Z,5.16
2023-03-03T21:57:42.398Z,5.16
2023-03-03T22:00:10.152Z,5.17
2023-03-03T22:02:36.684Z,5.18
2023-03-03T22:05:03.884Z,5.19
2023-03-03T22:07:30.367Z,5.20
2023-03-03T22:09:56.848Z,5.23
2023-03-03T22:12:23.278Z,5.24
2023-03-03T22:14:49.736Z,5.23
2023-03-03T22:17:16.163Z,5.24
2023-03-03T22:19:42.637Z,5.24
2023-03-03T22:22:09.382Z,5.25
2023-03-03T22:24:35.802Z,5.24
2023-03-03T22:27:03.339Z,5.25
2023-03-03T22:29:29.846Z,5.25
2023-03-03T22:31:58.943Z,5.24
2023-03-03T22:34:25.635Z,5.24
2023-03-03T22:36:52.118Z,5.23
2023-03-03T22:39:18.566Z,5.23
2023-03-03T22:41:45.032Z,5.22
2023-03-03T22:44:11.533Z,5.23
2023-03-03T22:46:38.138Z,5.23
2023-03-03T22:49:04.615Z,5.24
2023-03-03T22:51:31.056Z,5.23
2023-03-03T22:53:57.582Z,5.24
2023-03-03T22:56:24.000Z,5.23
2023-03-03T22:58:50.462Z,5.23
2023-03-03T23:01:16.946Z,5.23
2023-03-03T23:03:43.388Z,5.23
2023-03-03T23:06:09.898Z,5.23
2023-03-03T23:08:36.337Z,5.21
2023-03-03T23:11:02.892Z,5.21
2023-03-03T23:13:29.524Z,5.20
2023-03-03T23:16:00.233Z,5.20
2023-03-03T23:18:28.247Z,5.19
2023-03-03T23:20:55.832Z,5.18
2023-03-03T23:23:23.695Z,5.18
2023-03-03T23:25:50.202Z,5.19
2023-03-03T23:28:16.774Z,5.19
2023-03-03T23:30:43.299Z,5.18
2023-03-03T23:33:09.810Z,5.17
2023-03-03T23:35:36.619Z,5.17
2023-03-03T23:38:03.340Z,5.17
2023-03-03T23:40:29.851Z,5.16
2023-03-03T23:42:56.361Z,5.16
2023-03-03T23:45:23.463Z,5.13
2023-03-03T23:47:49.930Z,5.11
2023-03-03T23:50:16.578Z,5.12
2023-03-03T23:52:43.082Z,5.12
2023-03-03T23:55:10.019Z,5.10
2023-03-03T23:57:36.600Z,5.11
